createdAt,value
2019-03-03T00:00:34.899Z,20.63
2019-03-03T00:03:04.293Z,20.73
2019-03-03T00:05:33.571Z,20.70
2019-03-03T00:08:02.817Z,19.43
2019-03-03T00:10:32.025Z,18.63
2019-03-03T00:13:01.307Z,15.27
2019-03-03T00:18:47.533Z,12.37
2019-03-03T00:21:16.761Z,10.90
2019-03-03T00:24:27.501Z,10.47
2019-03-03T00:26:58.409Z,10.27
2019-03-03T00:29:27.643Z,9.10
2019-03-03T00:31:56.879Z,8.30
2019-03-03T00:34:26.171Z,7.63
2019-03-03T00:40:31.135Z,7.43
2019-03-03T00:43:21.473Z,6.93
2019-03-03T00:45:56.891Z,6.83
2019-03-03T00:48:48.038Z,6.50
2019-03-03T00:51:24.166Z,6.10
2019-03-03T00:54:18.372Z,6.37
2019-03-03T00:57:22.035Z,5.93
2019-03-03T01:00:21.672Z,5.40
2019-03-03T01:03:01.753Z,5.47
2019-03-03T01:05:54.567Z,5.00
2019-03-03T01:08:57.795Z,4.90
2019-03-03T01:11:46.960Z,5.33
2019-03-03T01:14:20.958Z,5.23
2019-03-03T01:17:14.871Z,5.33
2019-03-03T01:20:03.139Z,5.30
2019-03-03T01:25:25.237Z,5.20
2019-03-03T01:27:54.683Z,4.97
2019-03-03T01:30:23.926Z,4.97
2019-03-03T01:32:53.146Z,4.63
2019-03-03T01:35:22.442Z,4.90
2019-03-03T01:37:51.685Z,5.70
2019-03-03T01:47:05.204Z,7.47
2019-03-03T01:49:34.462Z,8.30
2019-03-03T01:55:54.992Z,9.50
2019-03-03T01:58:24.237Z,10.50
2019-03-03T02:00:53.587Z,11.30
2019-03-03T02:03:22.995Z,11.47
2019-03-03T02:05:52.307Z,11.93
2019-03-03T02:08:38.901Z,10.87
2019-03-03T02:11:07.855Z,10.47
2019-03-03T02:13:37.211Z,10.53
2019-03-03T02:16:08.096Z,10.20
2019-03-03T02:18:37.335Z,9.53
2019-03-03T02:21:06.632Z,10.27
2019-03-03T02:23:35.908Z,9.47
2019-03-03T02:26:05.185Z,8.87
2019-03-03T02:28:34.488Z,8.30
2019-03-03T02:31:04.414Z,8.00
2019-03-03T02:33:33.735Z,6.97
2019-03-03T02:36:03.008Z,7.27
2019-03-03T02:38:32.325Z,6.57
2019-03-03T02:41:01.522Z,6.87
2019-03-03T02:43:37.528Z,6.73
2019-03-03T02:46:06.795Z,6.87
2019-03-03T02:48:36.099Z,6.23
2019-03-03T02:51:05.392Z,5.77
2019-03-03T02:53:34.655Z,5.53
2019-03-03T02:56:03.881Z,5.93
2019-03-03T02:58:33.161Z,5.83
2019-03-03T03:01:08.146Z,5.60
2019-03-03T03:03:37.483Z,5.17
2019-03-03T03:09:27.896Z,5.00
2019-03-03T03:15:11.085Z,5.40
2019-03-03T03:17:59.828Z,4.80
2019-03-03T03:20:41.239Z,4.90
2019-03-03T03:26:06.612Z,4.57
2019-03-03T03:29:00.738Z,4.30
2019-03-03T03:32:05.359Z,4.30
2019-03-03T03:34:59.202Z,4.70
2019-03-03T03:37:35.416Z,3.70
2019-03-03T03:40:26.238Z,4.10
2019-03-03T03:43:11.336Z,3.80
2019-03-03T03:49:10.934Z,3.83
2019-03-03T03:52:04.545Z,3.73
2019-03-03T03:54:51.282Z,3.70
2019-03-03T03:57:39.577Z,3.50
2019-03-03T04:00:30.821Z,3.33
2019-03-03T04:03:17.883Z,3.70
2019-03-03T04:06:04.474Z,3.83
2019-03-03T04:08:51.950Z,3.50
2019-03-03T04:14:52.501Z,3.30
2019-03-03T04:20:36.176Z,3.03
2019-03-03T04:23:40.324Z,3.23
2019-03-03T04:29:25.873Z,3.70
2019-03-03T04:32:18.595Z,3.50
2019-03-03T04:35:21.825Z,2.93
2019-03-03T04:37:56.248Z,3.37
2019-03-03T04:40:33.856Z,3.17
2019-03-03T04:43:08.837Z,3.20
2019-03-03T04:46:00.367Z,3.63
2019-03-03T04:55:40.490Z,3.00
2019-03-03T04:58:40.370Z,2.90
2019-03-03T05:01:32.965Z,3.27
2019-03-03T05:10:05.981Z,3.17
2019-03-03T05:12:54.432Z,3.30
2019-03-03T05:15:51.260Z,3.00
2019-03-03T05:18:43.470Z,2.97
2019-03-03T05:21:12.859Z,3.40
2019-03-03T05:23:42.166Z,3.23
2019-03-03T05:26:11.479Z,3.50
2019-03-03T05:28:41.082Z,2.90
2019-03-03T05:31:10.368Z,3.40
2019-03-03T05:33:39.603Z,3.13
2019-03-03T05:36:08.927Z,3.33
2019-03-03T05:38:38.220Z,3.70
2019-03-03T05:41:12.349Z,3.77
2019-03-03T05:44:05.682Z,3.90
2019-03-03T05:46:34.915Z,3.80
2019-03-03T05:49:05.217Z,3.83
2019-03-03T05:51:34.430Z,3.80
2019-03-03T05:54:03.628Z,3.60
2019-03-03T05:56:32.971Z,4.00
2019-03-03T05:59:02.233Z,4.17
2019-03-03T06:01:48.721Z,3.70
2019-03-03T06:04:25.229Z,4.00
2019-03-03T06:06:55.191Z,3.70
2019-03-03T06:09:27.380Z,4.20
2019-03-03T06:11:57.267Z,4.27
2019-03-03T06:14:29.980Z,3.80
2019-03-03T06:17:10.941Z,4.27
2019-03-03T06:19:49.263Z,3.63
2019-03-03T06:25:52.955Z,3.73
2019-03-03T06:28:27.372Z,3.87
2019-03-03T06:31:06.186Z,4.23
2019-03-03T06:33:55.363Z,4.43
2019-03-03T06:36:31.194Z,4.40
2019-03-03T06:39:04.695Z,4.90
2019-03-03T06:44:47.316Z,5.00
2019-03-03T06:47:16.582Z,5.60
2019-03-03T06:49:45.902Z,5.13
2019-03-03T07:06:19.723Z,6.33
2019-03-03T07:32:27.282Z,7.17
2019-03-03T08:07:47.988Z,7.67
2019-03-03T08:13:27.433Z,7.50
2019-03-03T08:16:42.596Z,7.20
2019-03-03T08:22:34.117Z,7.43
2019-03-03T08:25:52.413Z,7.47
2019-03-03T08:28:21.611Z,6.70
2019-03-03T08:30:57.234Z,7.03
2019-03-03T08:33:26.471Z,6.50
2019-03-03T08:35:55.746Z,6.63
2019-03-03T08:38:24.935Z,6.87
2019-03-03T08:40:54.199Z,6.80
2019-03-03T08:43:32.777Z,6.70
2019-03-03T08:49:49.307Z,6.60
2019-03-03T08:58:56.175Z,7.87
2019-03-03T09:01:32.114Z,6.70
2019-03-03T09:04:31.670Z,6.60
2019-03-03T09:07:08.092Z,6.90
2019-03-03T09:09:56.116Z,7.33
2019-03-03T09:12:45.690Z,6.67
2019-03-03T09:15:39.260Z,7.30
2019-03-03T09:18:26.257Z,7.07
2019-03-03T09:21:32.751Z,7.47
2019-03-03T09:24:33.116Z,7.57
2019-03-03T09:27:24.389Z,6.87
2019-03-03T09:30:18.015Z,7.00
2019-03-03T09:33:04.519Z,6.33
2019-03-03T09:35:41.742Z,6.87
2019-03-03T09:41:28.538Z,6.60
2019-03-03T09:44:10.566Z,6.60
2019-03-03T09:46:58.928Z,6.27
2019-03-03T09:49:38.896Z,6.63
2019-03-03T09:52:40.940Z,6.30
2019-03-03T09:55:16.610Z,5.87
2019-03-03T09:58:08.419Z,6.07
2019-03-03T10:00:57.404Z,6.77
2019-03-03T10:03:33.988Z,6.00
2019-03-03T10:06:25.110Z,6.87
2019-03-03T10:09:21.483Z,6.00
2019-03-03T10:12:05.605Z,6.07
2019-03-03T10:14:40.225Z,6.90
2019-03-03T10:20:31.297Z,5.70
2019-03-03T10:23:19.658Z,5.50
2019-03-03T10:25:57.275Z,6.30
2019-03-03T10:28:44.599Z,5.90
2019-03-03T10:31:25.019Z,5.87
2019-03-03T10:34:31.287Z,5.97
2019-03-03T10:37:08.915Z,5.90
2019-03-03T10:40:02.902Z,6.07
2019-03-03T10:42:43.668Z,5.80
2019-03-03T10:45:38.116Z,5.47
2019-03-03T10:48:25.615Z,5.90
2019-03-03T10:51:13.557Z,5.70
2019-03-03T10:54:00.249Z,5.90
2019-03-03T10:56:44.194Z,5.93
2019-03-03T10:59:54.932Z,5.97
2019-03-03T11:02:26.842Z,5.60
2019-03-03T11:05:15.920Z,5.50
2019-03-03T11:07:56.417Z,5.23
2019-03-03T11:10:42.431Z,6.27
2019-03-03T11:13:18.183Z,5.87
2019-03-03T11:16:03.470Z,4.60
2019-03-03T11:18:55.943Z,5.17
2019-03-03T11:21:40.709Z,5.43
2019-03-03T11:24:31.873Z,5.23
2019-03-03T11:27:14.813Z,5.10
2019-03-03T11:29:55.803Z,5.70
2019-03-03T11:32:46.781Z,5.27
2019-03-03T11:35:47.139Z,4.97
2019-03-03T11:38:41.139Z,4.80
2019-03-03T11:41:15.923Z,4.70
2019-03-03T11:43:55.848Z,4.03
2019-03-03T11:46:46.585Z,4.30
2019-03-03T11:49:29.931Z,4.17
2019-03-03T11:52:09.801Z,4.17
2019-03-03T11:54:45.595Z,4.17
2019-03-03T11:57:48.450Z,3.90
2019-03-03T12:00:34.348Z,3.83
2019-03-03T12:03:20.723Z,4.10
2019-03-03T12:05:59.420Z,4.40
2019-03-03T12:08:40.432Z,4.00
2019-03-03T12:11:25.476Z,4.00
2019-03-03T12:14:01.694Z,3.80
2019-03-03T12:16:42.839Z,4.07
2019-03-03T12:19:21.028Z,4.17
2019-03-03T12:22:07.433Z,4.00
2019-03-03T12:24:58.393Z,3.70
2019-03-03T12:28:04.563Z,3.30
2019-03-03T12:30:42.905Z,3.77
2019-03-03T12:33:48.217Z,4.00
2019-03-03T12:36:32.679Z,3.93
2019-03-03T12:39:20.762Z,4.27
2019-03-03T12:42:12.910Z,4.20
2019-03-03T12:45:10.062Z,3.87
2019-03-03T12:47:55.504Z,3.63
2019-03-03T12:50:47.675Z,4.17
2019-03-03T12:53:40.168Z,4.30
2019-03-03T12:56:28.111Z,4.60
2019-03-03T12:59:16.369Z,4.07
2019-03-03T13:01:58.025Z,4.40
2019-03-03T13:04:53.984Z,4.03
2019-03-03T13:07:37.075Z,4.47
2019-03-03T13:10:27.400Z,4.23
2019-03-03T13:13:20.349Z,4.40
2019-03-03T13:16:16.625Z,4.50
2019-03-03T13:19:18.488Z,5.13
2019-03-03T13:22:08.084Z,4.57
2019-03-03T13:24:48.806Z,4.63
2019-03-03T13:27:35.520Z,4.40
2019-03-03T13:30:29.559Z,4.77
2019-03-03T13:33:17.651Z,4.87
2019-03-03T13:36:00.305Z,4.60
2019-03-03T13:38:54.345Z,5.00
2019-03-03T13:41:36.681Z,4.97
2019-03-03T13:44:08.026Z,5.10
2019-03-03T13:46:39.276Z,5.33
2019-03-03T13:49:10.259Z,5.50
2019-03-03T13:51:39.289Z,5.43
2019-03-03T13:54:08.220Z,6.10
2019-03-03T13:56:37.431Z,5.93
2019-03-03T13:59:06.461Z,5.90
2019-03-03T14:01:35.460Z,6.43
2019-03-03T14:04:04.528Z,6.37
2019-03-03T14:06:33.409Z,6.60
2019-03-03T14:09:02.509Z,7.07
2019-03-03T14:11:31.639Z,7.07
2019-03-03T14:14:00.662Z,6.50
2019-03-03T14:16:29.630Z,6.53
2019-03-03T14:18:58.559Z,7.30
2019-03-03T14:21:27.468Z,6.60
2019-03-03T14:23:56.554Z,6.83
2019-03-03T14:26:25.559Z,6.80
2019-03-03T14:28:55.310Z,6.73
2019-03-03T14:31:24.410Z,6.43
2019-03-03T14:33:53.283Z,6.30
2019-03-03T14:36:22.211Z,6.57
2019-03-03T14:38:51.087Z,6.37
2019-03-03T14:41:20.031Z,6.33
2019-03-03T14:43:49.041Z,6.30
2019-03-03T14:46:17.963Z,6.40
2019-03-03T14:48:46.978Z,6.17
2019-03-03T14:51:16.214Z,6.10
2019-03-03T14:53:45.146Z,6.60
2019-03-03T14:56:14.144Z,5.90
2019-03-03T14:58:43.039Z,5.77
2019-03-03T15:01:11.973Z,6.53
2019-03-03T15:03:40.884Z,7.10
2019-03-03T15:06:09.789Z,5.90
2019-03-03T15:08:38.846Z,6.50
2019-03-03T15:11:08.531Z,6.17
2019-03-03T15:13:37.640Z,5.33
2019-03-03T15:16:06.786Z,5.63
2019-03-03T15:18:35.719Z,5.70
2019-03-03T15:21:04.672Z,5.30
2019-03-03T15:23:33.598Z,5.30
2019-03-03T15:26:02.658Z,5.20
2019-03-03T15:28:31.689Z,5.80
2019-03-03T15:31:00.770Z,5.13
2019-03-03T15:33:29.980Z,5.53
2019-03-03T15:35:59.027Z,5.57
2019-03-03T15:38:27.943Z,5.87
2019-03-03T15:40:57.031Z,5.07
2019-03-03T15:43:26.021Z,5.67
2019-03-03T15:45:54.926Z,5.10
2019-03-03T15:48:23.978Z,5.47
2019-03-03T15:50:52.921Z,5.53
2019-03-03T15:53:21.824Z,5.53
2019-03-03T15:55:50.750Z,5.30
2019-03-03T15:58:19.638Z,5.80
2019-03-03T16:00:48.572Z,5.70
2019-03-03T16:03:17.486Z,5.13
2019-03-03T16:05:46.399Z,5.60
2019-03-03T16:08:15.299Z,5.80
2019-03-03T16:10:44.270Z,5.70
2019-03-03T16:13:13.267Z,6.00
2019-03-03T16:15:42.363Z,5.90
2019-03-03T16:18:11.383Z,6.27
2019-03-03T16:20:40.323Z,6.10
2019-03-03T16:23:09.206Z,6.40
2019-03-03T16:25:38.120Z,6.23
2019-03-03T16:28:06.939Z,5.73
2019-03-03T16:30:35.863Z,6.10
2019-03-03T16:33:04.744Z,6.13
2019-03-03T16:35:33.727Z,5.73
2019-03-03T16:38:02.621Z,6.33
2019-03-03T16:40:39.298Z,6.53
2019-03-03T16:43:02.249Z,6.83
2019-03-03T16:45:31.195Z,6.57
2019-03-03T16:48:00.044Z,7.23
2019-03-03T16:50:29.115Z,7.57
2019-03-03T16:52:58.062Z,7.90
2019-03-03T16:55:27.055Z,8.40
2019-03-03T16:57:55.895Z,8.27
2019-03-03T17:00:24.900Z,8.87
2019-03-03T17:02:53.727Z,9.07
2019-03-03T17:05:22.782Z,8.93
2019-03-03T17:07:51.847Z,8.03
2019-03-03T17:10:20.771Z,9.00
2019-03-03T17:12:49.664Z,8.60
2019-03-03T17:15:20.494Z,8.60
2019-03-03T17:17:49.427Z,8.43
2019-03-03T17:20:18.567Z,9.37
2019-03-03T17:22:47.547Z,8.53
2019-03-03T17:25:18.056Z,8.00
2019-03-03T17:27:47.177Z,8.63
2019-03-03T17:30:17.927Z,8.70
2019-03-03T17:32:46.939Z,8.53
2019-03-03T17:35:16.161Z,8.67
2019-03-03T17:37:45.026Z,8.30
2019-03-03T17:40:18.138Z,8.40
2019-03-03T17:42:47.142Z,9.00
2019-03-03T17:45:18.033Z,7.83
2019-03-03T17:47:47.082Z,8.07
2019-03-03T17:50:16.747Z,8.63
2019-03-03T17:52:46.079Z,7.70
2019-03-03T17:55:15.874Z,7.77
2019-03-03T17:57:45.055Z,7.93
2019-03-03T18:00:16.476Z,7.90
2019-03-03T18:02:45.302Z,6.97
2019-03-03T18:05:15.965Z,7.47
2019-03-03T18:07:45.076Z,7.57
2019-03-03T18:10:14.519Z,7.53
2019-03-03T18:12:43.599Z,7.43
2019-03-03T18:15:12.566Z,7.70
2019-03-03T18:17:41.467Z,6.53
2019-03-03T18:20:11.433Z,7.13
2019-03-03T18:22:40.425Z,7.20
2019-03-03T18:25:10.511Z,7.33
2019-03-03T18:27:39.839Z,6.93
2019-03-03T18:30:11.643Z,6.80
2019-03-03T18:32:40.764Z,6.20
2019-03-03T18:35:13.003Z,6.43
2019-03-03T18:37:41.932Z,6.90
2019-03-03T18:40:11.687Z,5.93
2019-03-03T18:42:40.605Z,5.53
2019-03-03T18:45:10.689Z,5.40
2019-03-03T18:47:40.409Z,5.40
2019-03-03T18:50:11.742Z,5.37
2019-03-03T18:52:41.011Z,5.30
2019-03-03T18:55:10.106Z,5.10
2019-03-03T18:57:39.478Z,5.07
2019-03-03T19:00:11.886Z,4.90
2019-03-03T19:02:40.871Z,4.60
2019-03-03T19:05:09.862Z,4.70
2019-03-03T19:07:38.817Z,4.73
2019-03-03T19:10:10.099Z,5.00
2019-03-03T19:12:39.116Z,4.57
2019-03-03T19:15:10.192Z,4.83
2019-03-03T19:17:39.307Z,4.90
2019-03-03T19:20:09.803Z,4.90
2019-03-03T19:22:38.846Z,4.87
2019-03-03T19:25:09.162Z,4.80
2019-03-03T19:27:38.196Z,4.93
2019-03-03T19:30:10.794Z,4.77
2019-03-03T19:32:39.633Z,4.90
2019-03-03T19:35:09.033Z,4.73
2019-03-03T19:37:38.047Z,4.33
2019-03-03T19:40:07.616Z,4.37
2019-03-03T19:42:36.513Z,5.03
2019-03-03T19:45:09.507Z,4.03
2019-03-03T19:47:38.412Z,4.30
2019-03-03T19:50:09.036Z,5.07
2019-03-03T19:52:37.949Z,4.33
2019-03-03T19:55:07.940Z,4.70
2019-03-03T19:57:37.044Z,4.30
2019-03-03T20:00:07.891Z,4.50
2019-03-03T20:02:36.739Z,4.53
2019-03-03T20:05:05.807Z,4.03
2019-03-03T20:07:34.715Z,4.30
2019-03-03T20:10:03.922Z,4.53
2019-03-03T20:12:32.865Z,4.23
2019-03-03T20:15:01.691Z,4.83
2019-03-03T20:17:30.596Z,3.67
2019-03-03T20:19:59.464Z,4.10
2019-03-03T20:22:28.326Z,3.97
2019-03-03T20:24:57.331Z,3.73
2019-03-03T20:27:26.244Z,3.77
2019-03-03T20:29:55.189Z,4.07
2019-03-03T20:32:24.267Z,4.00
2019-03-03T20:34:53.974Z,4.17
2019-03-03T20:37:22.814Z,4.23
2019-03-03T20:39:51.891Z,3.80
2019-03-03T20:42:20.777Z,4.00
2019-03-03T20:44:49.715Z,3.97
2019-03-03T20:47:18.579Z,4.03
2019-03-03T20:49:47.507Z,4.23
2019-03-03T20:52:16.831Z,3.97
2019-03-03T20:54:45.848Z,4.20
2019-03-03T20:57:14.896Z,3.73
2019-03-03T20:59:43.862Z,4.30
2019-03-03T21:02:12.679Z,3.93
2019-03-03T21:04:41.614Z,3.90
2019-03-03T21:07:10.532Z,4.07
2019-03-03T21:09:39.455Z,3.90
2019-03-03T21:12:08.370Z,4.07
2019-03-03T21:14:37.266Z,4.10
2019-03-03T21:17:06.162Z,3.67
2019-03-03T21:19:35.098Z,3.80
2019-03-03T21:22:03.979Z,3.80
2019-03-03T21:24:32.808Z,3.90
2019-03-03T21:27:02.028Z,3.60
2019-03-03T21:29:31.020Z,3.87
2019-03-03T21:31:59.916Z,3.90
2019-03-03T21:34:28.832Z,3.90
2019-03-03T21:36:57.781Z,3.80
2019-03-03T21:39:26.633Z,3.93
2019-03-03T21:41:55.648Z,3.93
2019-03-03T21:44:24.568Z,3.83
2019-03-03T21:46:53.571Z,3.90
2019-03-03T21:49:22.397Z,4.20
2019-03-03T21:51:51.387Z,3.70
2019-03-03T21:54:20.251Z,4.03
2019-03-03T21:56:49.123Z,3.80
2019-03-03T21:59:18.007Z,3.77
2019-03-03T22:01:46.879Z,3.87
2019-03-03T22:04:15.864Z,4.03
2019-03-03T22:06:45.556Z,4.10
2019-03-03T22:09:14.787Z,4.00
2019-03-03T22:11:43.831Z,4.60
2019-03-03T22:14:12.664Z,4.07
2019-03-03T22:16:41.552Z,4.13
2019-03-03T22:19:10.473Z,4.50
2019-03-03T22:21:39.303Z,4.23
2019-03-03T22:24:08.134Z,3.53
2019-03-03T22:26:37.161Z,3.87
2019-03-03T22:29:06.106Z,4.20
2019-03-03T22:31:34.940Z,3.70
2019-03-03T22:34:03.997Z,4.07
2019-03-03T22:36:32.900Z,3.70
2019-03-03T22:39:01.834Z,3.83
2019-03-03T22:41:30.687Z,4.00
2019-03-03T22:43:59.661Z,3.50
2019-03-03T22:46:28.598Z,3.90
2019-03-03T22:48:57.547Z,3.90
2019-03-03T22:51:26.359Z,3.80
2019-03-03T22:53:55.174Z,3.80
2019-03-03T22:56:24.095Z,3.60
2019-03-03T22:58:52.970Z,3.80
2019-03-03T23:01:25.218Z,3.60
2019-03-03T23:04:25.771Z,3.90
2019-03-03T23:07:27.735Z,3.60
2019-03-03T23:10:23.350Z,3.60
2019-03-03T23:13:17.622Z,3.30
2019-03-03T23:16:15.695Z,3.90
2019-03-03T23:19:16.839Z,3.40
2019-03-03T23:22:01.899Z,3.60
2019-03-03T23:25:03.978Z,3.80
2019-03-03T23:27:32.791Z,3.20
2019-03-03T23:30:01.656Z,3.43
2019-03-03T23:32:30.588Z,3.43
2019-03-03T23:34:59.486Z,3.80
2019-03-03T23:37:28.314Z,3.77
2019-03-03T23:39:57.179Z,3.13
2019-03-03T23:42:26.100Z,3.47
2019-03-03T23:44:54.910Z,2.90
2019-03-03T23:47:23.779Z,3.37
2019-03-03T23:49:52.762Z,3.60
2019-03-03T23:52:21.597Z,3.20
2019-03-03T23:54:50.479Z,3.13
2019-03-03T23:57:19.386Z,3.37
2019-03-03T23:59:48.227Z,3.40
